Time;durP1;ratioP1;P1;durP2;ratioP2;P2;SDS_P1;SDS_P2;PMS_P1;PMS_P2;Temp;Humidity;BMP_temperature;BMP_pressure;BME280_temperature;BME280_humidity;BME280_pressure;Samples;Min_cycle;Max_cycle;Signal;HPM_P1;HPM_P2
2022/11/27 00:00:20;;;;;;;122.70;39.58;;;;;;;;;;6185245;23;20001;-34
2022/11/27 00:02:45;;;;;;;122.95;39.97;;;;;;;;;;6185817;23;20004;-34
2022/11/27 00:05:10;;;;;;;120.40;40.65;;;;;;;;;;6185493;23;20004;-34
2022/11/27 00:07:35;;;;;;;124.32;40.03;;;;;;;;;;6185291;23;19996;-34
2022/11/27 00:10:01;;;;;;;99.43;36.92;;;;;;;;;;6185454;23;20044;-34
2022/11/27 00:12:26;;;;;;;107.63;39.33;;;;;;;;;;6185506;23;20114;-34
2022/11/27 00:14:51;;;;;;;114.47;39.25;;;;;;;;;;6185397;23;19997;-34
2022/11/27 00:17:16;;;;;;;106.53;37.42;;;;;;;;;;6185236;23;20020;-34
2022/11/27 00:19:42;;;;;;;112.68;40.45;;;;;;;;;;6159070;23;20051;-34
2022/11/27 00:22:07;;;;;;;114.57;37.97;;;;;;;;;;6185635;23;20364;-34
2022/11/27 00:24:32;;;;;;;119.97;39.63;;;;;;;;;;6185218;23;20020;-34
2022/11/27 00:26:57;;;;;;;101.65;37.97;;;;;;;;;;6183961;23;20080;-34
2022/11/27 00:29:23;;;;;;;101.18;36.05;;;;;;;;;;6184347;23;20005;-34
2022/11/27 00:31:48;;;;;;;110.30;40.20;;;;;;;;;;6184955;23;20428;-34
2022/11/27 00:34:13;;;;;;;112.07;40.10;;;;;;;;;;6185103;23;20004;-32
2022/11/27 00:36:39;;;;;;;114.50;39.22;;;;;;;;;;6185295;23;20003;-32
2022/11/27 00:39:04;;;;;;;110.50;38.97;;;;;;;;;;6185632;23;19997;-33
2022/11/27 00:41:30;;;;;;;119.93;40.70;;;;;;;;;;6185486;23;20422;-33
2022/11/27 00:43:55;;;;;;;121.35;41.20;;;;;;;;;;6185278;23;19997;-32
2022/11/27 00:46:22;;;;;;;121.85;42.58;;;;;;;;;;6185260;23;20428;-33
2022/11/27 00:48:47;;;;;;;112.13;41.60;;;;;;;;;;6184798;23;20005;-33
2022/11/27 00:51:14;;;;;;;123.00;42.22;;;;;;;;;;6158894;23;19993;-32
2022/11/27 00:53:40;;;;;;;130.07;43.33;;;;;;;;;;6185127;23;19993;-33
2022/11/27 00:56:05;;;;;;;136.13;41.50;;;;;;;;;;6185735;23;20047;-33
2022/11/27 00:58:30;;;;;;;134.63;41.45;;;;;;;;;;6187378;23;20013;-33
2022/11/27 01:00:56;;;;;;;125.18;42.75;;;;;;;;;;6187164;23;20063;-32
2022/11/27 01:03:22;;;;;;;130.52;41.92;;;;;;;;;;6187208;23;20410;-33
2022/11/27 01:05:47;;;;;;;137.65;42.78;;;;;;;;;;6187407;23;20023;-33
2022/11/27 01:08:13;;;;;;;128.85;44.08;;;;;;;;;;6187002;23;20432;-33
2022/11/27 01:10:38;;;;;;;124.20;43.33;;;;;;;;;;6187264;23;20080;-33
2022/11/27 01:13:03;;;;;;;135.25;45.55;;;;;;;;;;6187290;23;20048;-33
2022/11/27 01:15:28;;;;;;;134.43;44.97;;;;;;;;;;6186865;23;19993;-33
2022/11/27 01:17:53;;;;;;;139.55;46.00;;;;;;;;;;6187074;23;20052;-33
2022/11/27 01:20:19;;;;;;;158.90;48.05;;;;;;;;;;6186945;23;20313;-33
2022/11/27 01:22:44;;;;;;;142.93;45.70;;;;;;;;;;6186983;23;20024;-33
2022/11/27 01:25:09;;;;;;;152.75;47.08;;;;;;;;;;6186813;23;20079;-33
2022/11/27 01:27:35;;;;;;;149.65;47.42;;;;;;;;;;6186858;23;19993;-33
2022/11/27 01:30:00;;;;;;;176.50;48.70;;;;;;;;;;6160428;23;20079;-33
2022/11/27 01:32:25;;;;;;;170.95;48.60;;;;;;;;;;6186918;23;20000;-33
2022/11/27 01:34:50;;;;;;;155.20;46.67;;;;;;;;;;6187000;23;20425;-33
2022/11/27 01:37:15;;;;;;;172.95;45.03;;;;;;;;;;6186466;23;20364;-33
2022/11/27 01:39:41;;;;;;;197.10;46.65;;;;;;;;;;6186422;23;20064;-33
2022/11/27 01:42:08;;;;;;;169.30;45.10;;;;;;;;;;6160498;23;19997;-33
2022/11/27 01:44:33;;;;;;;174.07;45.83;;;;;;;;;;6186493;23;20360;-33
2022/11/27 01:46:59;;;;;;;129.50;41.53;;;;;;;;;;6186956;23;20017;-33
2022/11/27 01:49:24;;;;;;;182.57;45.57;;;;;;;;;;6160474;23;20283;-33
2022/11/27 01:51:49;;;;;;;158.40;45.40;;;;;;;;;;6186644;23;20218;-33
2022/11/27 01:54:15;;;;;;;172.13;46.63;;;;;;;;;;6160291;23;20421;-33
2022/11/27 01:56:42;;;;;;;175.52;45.33;;;;;;;;;;6186724;23;20221;-32
2022/11/27 01:59:07;;;;;;;136.18;42.60;;;;;;;;;;6186689;23;19997;-33
2022/11/27 02:01:33;;;;;;;189.90;45.60;;;;;;;;;;6186537;23;20374;-33
2022/11/27 02:03:59;;;;;;;148.10;43.75;;;;;;;;;;6186544;23;20051;-33
2022/11/27 02:06:24;;;;;;;157.43;45.20;;;;;;;;;;6186361;23;20020;-33
2022/11/27 02:08:50;;;;;;;170.35;45.78;;;;;;;;;;6186449;23;20588;-33
2022/11/27 02:11:34;;;;;;;170.75;45.80;;;;;;;;;;6160287;23;20466;-33
2022/11/27 02:14:08;;;;;;;130.93;42.83;;;;;;;;;;6186350;23;20320;-33
2022/11/27 02:16:50;;;;;;;177.77;45.13;;;;;;;;;;6186337;23;19989;-33
2022/11/27 02:19:25;;;;;;;122.13;42.60;;;;;;;;;;6160063;23;20009;-33
2022/11/27 02:21:55;;;;;;;136.82;43.53;;;;;;;;;;6186437;23;20004;-33
2022/11/27 02:24:20;;;;;;;167.98;46.40;;;;;;;;;;6186479;23;20076;-33
2022/11/27 02:27:02;;;;;;;186.50;48.03;;;;;;;;;;6186487;23;20025;-33
2022/11/27 02:29:31;;;;;;;160.00;45.83;;;;;;;;;;6186132;23;20251;-33
2022/11/27 02:32:02;;;;;;;189.75;44.83;;;;;;;;;;6186497;23;20349;-33
2022/11/27 02:34:42;;;;;;;218.85;48.47;;;;;;;;;;6186320;23;20001;-33
2022/11/27 02:37:25;;;;;;;234.23;46.85;;;;;;;;;;6186249;23;20060;-33
2022/11/27 02:40:00;;;;;;;128.20;42.40;;;;;;;;;;6185789;23;20008;-33
2022/11/27 02:42:26;;;;;;;133.23;45.47;;;;;;;;;;6186203;23;20001;-33
2022/11/27 02:44:59;;;;;;;137.60;44.10;;;;;;;;;;6186024;23;20001;-33
2022/11/27 02:47:26;;;;;;;157.90;44.22;;;;;;;;;;6159711;23;20480;-33
2022/11/27 02:49:51;;;;;;;156.35;42.70;;;;;;;;;;6186218;23;20092;-33
2022/11/27 02:52:18;;;;;;;171.90;43.80;;;;;;;;;;6186216;23;20402;-33
2022/11/27 02:54:47;;;;;;;134.88;41.40;;;;;;;;;;6186288;23;19996;-33
2022/11/27 02:57:12;;;;;;;158.35;43.92;;;;;;;;;;6159886;23;19993;-33
2022/11/27 02:59:40;;;;;;;156.55;43.05;;;;;;;;;;6185971;23;20064;-33
2022/11/27 03:02:08;;;;;;;165.77;42.70;;;;;;;;;;6185690;23;20488;-33
2022/11/27 03:04:36;;;;;;;170.25;41.45;;;;;;;;;;6185997;23;20064;-33
2022/11/27 03:07:05;;;;;;;205.20;42.40;;;;;;;;;;6185548;23;20449;-33
2022/11/27 03:09:34;;;;;;;147.75;40.50;;;;;;;;;;6185867;23;20425;-33
2022/11/27 03:11:59;;;;;;;124.93;38.57;;;;;;;;;;6186150;23;20464;-33
2022/11/27 03:14:25;;;;;;;97.40;37.67;;;;;;;;;;6185524;23;19997;-33
2022/11/27 03:17:13;;;;;;;94.57;37.63;;;;;;;;;;6185541;23;20059;-34
2022/11/27 03:19:39;;;;;;;120.63;40.50;;;;;;;;;;6115887;23;20027;-34
2022/11/27 03:22:04;;;;;;;117.05;40.28;;;;;;;;;;6185851;23;20436;-33
2022/11/27 03:24:31;;;;;;;111.88;37.35;;;;;;;;;;6185940;23;19997;-33
2022/11/27 03:26:57;;;;;;;155.75;38.38;;;;;;;;;;6159318;23;19997;-33
2022/11/27 03:29:27;;;;;;;120.72;37.50;;;;;;;;;;6185627;23;20092;-33
2022/11/27 03:31:54;;;;;;;96.07;37.40;;;;;;;;;;6185837;23;20047;-33
2022/11/27 03:34:19;;;;;;;107.50;37.90;;;;;;;;;;6185765;23;19997;-33
2022/11/27 03:36:45;;;;;;;120.63;37.38;;;;;;;;;;6159215;23;20001;-33
2022/11/27 03:39:10;;;;;;;163.05;38.95;;;;;;;;;;6185605;23;19997;-33
2022/11/27 03:41:48;;;;;;;146.88;40.28;;;;;;;;;;6185247;23;19996;-33
2022/11/27 03:44:26;;;;;;;114.80;38.70;;;;;;;;;;6185240;23;20394;-33
2022/11/27 03:47:11;;;;;;;146.90;37.65;;;;;;;;;;6185553;23;20036;-33
2022/11/27 03:49:39;;;;;;;111.80;38.30;;;;;;;;;;6184300;23;20375;-33
2022/11/27 03:52:18;;;;;;;99.18;36.65;;;;;;;;;;6185567;23;19997;-33
2022/11/27 03:55:00;;;;;;;162.57;40.30;;;;;;;;;;6159279;23;20353;-33
2022/11/27 03:57:32;;;;;;;134.48;39.38;;;;;;;;;;6158985;23;19997;-33
2022/11/27 03:59:59;;;;;;;130.20;39.95;;;;;;;;;;6185319;23;20070;-33
2022/11/27 04:02:45;;;;;;;106.45;38.88;;;;;;;;;;6185085;23;20358;-33
2022/11/27 04:05:11;;;;;;;110.15;38.85;;;;;;;;;;6183876;23;20028;-33
2022/11/27 04:07:36;;;;;;;96.60;39.17;;;;;;;;;;6185329;23;20076;-33
2022/11/27 04:10:01;;;;;;;119.57;40.67;;;;;;;;;;6185337;23;20037;-33
2022/11/27 04:12:27;;;;;;;111.82;41.80;;;;;;;;;;6185545;23;19989;-33
2022/11/27 04:14:52;;;;;;;121.47;41.88;;;;;;;;;;6185353;23;20068;-33
2022/11/27 04:17:17;;;;;;;118.20;40.72;;;;;;;;;;6184733;23;20382;-33
2022/11/27 04:19:42;;;;;;;128.93;41.50;;;;;;;;;;6185377;23;20001;-33
2022/11/27 04:22:07;;;;;;;112.80;38.38;;;;;;;;;;6185470;23;20298;-33
2022/11/27 04:24:33;;;;;;;95.22;35.65;;;;;;;;;;6185424;23;19997;-33
2022/11/27 04:26:58;;;;;;;104.10;37.13;;;;;;;;;;6185282;23;19997;-33
2022/11/27 04:29:23;;;;;;;105.65;40.38;;;;;;;;;;6184685;23;20037;-33
2022/11/27 04:31:48;;;;;;;100.65;36.83;;;;;;;;;;6185163;23;20360;-33
2022/11/27 04:34:14;;;;;;;106.13;40.42;;;;;;;;;;6158211;23;20000;-33
2022/11/27 04:36:40;;;;;;;101.13;39.35;;;;;;;;;;6185166;23;19997;-34
2022/11/27 04:39:05;;;;;;;107.78;40.67;;;;;;;;;;6185175;23;19997;-33
2022/11/27 04:41:30;;;;;;;102.68;39.75;;;;;;;;;;6185370;23;20004;-35
2022/11/27 04:43:55;;;;;;;97.80;38.25;;;;;;;;;;6185264;23;19993;-33
2022/11/27 04:46:21;;;;;;;98.00;38.33;;;;;;;;;;6185077;23;20051;-33
2022/11/27 04:48:46;;;;;;;101.32;37.47;;;;;;;;;;6185100;23;20013;-33
2022/11/27 04:51:11;;;;;;;99.78;37.40;;;;;;;;;;6184997;23;19997;-33
2022/11/27 04:53:36;;;;;;;96.57;38.63;;;;;;;;;;6184801;23;20394;-34
2022/11/27 04:56:02;;;;;;;114.07;39.88;;;;;;;;;;6185113;23;20016;-34
2022/11/27 04:58:27;;;;;;;103.15;38.45;;;;;;;;;;6184792;23;20048;-33
2022/11/27 05:00:52;;;;;;;87.53;35.95;;;;;;;;;;6184993;23;19997;-33
2022/11/27 05:03:18;;;;;;;109.25;38.38;;;;;;;;;;6185063;23;20417;-33
2022/11/27 05:05:43;;;;;;;94.32;37.28;;;;;;;;;;6158773;23;20282;-34
2022/11/27 05:08:08;;;;;;;102.18;38.05;;;;;;;;;;6184979;23;20005;-34
2022/11/27 05:10:33;;;;;;;102.03;38.83;;;;;;;;;;6184875;23;19998;-34
2022/11/27 05:12:58;;;;;;;104.00;38.72;;;;;;;;;;6158237;23;20072;-34
2022/11/27 05:15:24;;;;;;;91.68;37.03;;;;;;;;;;6184941;23;20003;-31
2022/11/27 05:17:49;;;;;;;105.32;40.20;;;;;;;;;;6184893;23;20009;-33
2022/11/27 05:20:14;;;;;;;102.28;38.17;;;;;;;;;;6184720;23;20005;-33
2022/11/27 05:22:40;;;;;;;81.55;35.22;;;;;;;;;;6184908;23;20496;-33
2022/11/27 05:25:05;;;;;;;98.18;37.20;;;;;;;;;;6184962;23;20068;-33
2022/11/27 05:27:30;;;;;;;92.55;37.17;;;;;;;;;;6185048;23;20056;-34
2022/11/27 05:29:55;;;;;;;94.55;37.20;;;;;;;;;;6184736;23;20047;-33
2022/11/27 05:32:21;;;;;;;92.30;35.00;;;;;;;;;;6184661;23;19997;-34
2022/11/27 05:34:48;;;;;;;86.40;34.88;;;;;;;;;;6184698;23;20373;-35
2022/11/27 05:37:13;;;;;;;100.75;35.85;;;;;;;;;;6184639;23;19997;-33
2022/11/27 05:39:39;;;;;;;91.57;37.42;;;;;;;;;;6158380;23;20152;-34
2022/11/27 05:42:04;;;;;;;105.57;37.78;;;;;;;;;;6185204;23;20003;-33
2022/11/27 05:44:29;;;;;;;95.78;39.25;;;;;;;;;;6186312;23;20476;-33
2022/11/27 05:46:55;;;;;;;100.30;37.70;;;;;;;;;;6186504;23;20004;-34
2022/11/27 05:49:21;;;;;;;95.15;36.10;;;;;;;;;;6186495;23;20071;-34
2022/11/27 05:51:46;;;;;;;91.43;36.00;;;;;;;;;;6160040;23;20001;-34
2022/11/27 05:54:11;;;;;;;91.32;36.35;;;;;;;;;;6186707;23;20017;-33
2022/11/27 05:56:37;;;;;;;108.35;40.10;;;;;;;;;;6160210;23;20001;-33
2022/11/27 05:59:02;;;;;;;105.40;38.38;;;;;;;;;;6186284;23;19993;-33
2022/11/27 06:01:27;;;;;;;95.47;36.30;;;;;;;;;;6186442;23;20009;-33
2022/11/27 06:03:52;;;;;;;92.22;35.22;;;;;;;;;;6186479;23;19990;-33
2022/11/27 06:06:18;;;;;;;94.35;35.20;;;;;;;;;;6186112;23;19997;-34
2022/11/27 06:08:44;;;;;;;94.13;39.85;;;;;;;;;;6186471;23;20084;-34
2022/11/27 06:11:11;;;;;;;88.30;35.92;;;;;;;;;;6186306;23;20417;-34
2022/11/27 06:13:37;;;;;;;91.97;35.38;;;;;;;;;;6186191;23;20421;-34
2022/11/27 06:16:04;;;;;;;95.55;35.47;;;;;;;;;;6186312;23;20000;-33
2022/11/27 06:18:29;;;;;;;91.07;35.05;;;;;;;;;;6186202;23;20017;-34
2022/11/27 06:20:54;;;;;;;96.05;38.17;;;;;;;;;;6186134;23;20003;-33
2022/11/27 06:23:21;;;;;;;89.22;35.10;;;;;;;;;;6186391;23;20160;-33
2022/11/27 06:25:46;;;;;;;93.53;40.33;;;;;;;;;;6186301;23;19993;-33
2022/11/27 06:28:11;;;;;;;86.72;39.95;;;;;;;;;;6186018;23;20322;-34
2022/11/27 06:30:37;;;;;;;94.20;38.17;;;;;;;;;;6186230;23;20072;-34
2022/11/27 06:33:02;;;;;;;90.38;38.92;;;;;;;;;;6186201;23;19993;-34
2022/11/27 06:35:27;;;;;;;93.18;40.55;;;;;;;;;;6159849;23;20004;-33
2022/11/27 06:37:52;;;;;;;89.68;40.08;;;;;;;;;;6185889;23;20484;-33
2022/11/27 06:40:17;;;;;;;112.97;48.50;;;;;;;;;;6186033;23;20352;-33
2022/11/27 06:42:43;;;;;;;105.68;47.50;;;;;;;;;;6186057;23;19993;-34
2022/11/27 06:45:09;;;;;;;113.43;46.60;;;;;;;;;;6159578;23;20001;-33
2022/11/27 06:47:34;;;;;;;100.40;43.47;;;;;;;;;;6185873;23;19993;-33
2022/11/27 06:49:59;;;;;;;113.78;44.53;;;;;;;;;;6186181;23;20005;-33
2022/11/27 06:52:24;;;;;;;103.95;43.67;;;;;;;;;;6186124;23;20432;-32
2022/11/27 06:54:50;;;;;;;104.22;43.78;;;;;;;;;;6185813;23;20409;-33
2022/11/27 06:57:15;;;;;;;100.63;44.67;;;;;;;;;;6186074;23;20000;-34
2022/11/27 06:59:40;;;;;;;103.80;44.28;;;;;;;;;;6186205;23;20055;-33
2022/11/27 07:02:05;;;;;;;101.63;43.53;;;;;;;;;;6185946;23;19997;-33
2022/11/27 07:04:31;;;;;;;109.15;40.97;;;;;;;;;;6185906;23;19997;-33
2022/11/27 07:06:57;;;;;;;98.13;41.70;;;;;;;;;;6186049;23;20279;-34
2022/11/27 07:09:22;;;;;;;90.18;38.15;;;;;;;;;;6185862;23;20457;-34
2022/11/27 07:11:48;;;;;;;91.00;38.60;;;;;;;;;;6185896;23;20024;-34
2022/11/27 07:14:13;;;;;;;94.95;39.53;;;;;;;;;;6185888;23;19997;-34
2022/11/27 07:16:38;;;;;;;102.78;39.53;;;;;;;;;;6159294;23;20043;-34
2022/11/27 07:19:05;;;;;;;107.55;42.65;;;;;;;;;;6185581;23;20013;-34
2022/11/27 07:21:30;;;;;;;106.90;43.05;;;;;;;;;;6185795;23;20092;-33
2022/11/27 07:23:56;;;;;;;110.43;42.83;;;;;;;;;;6185806;23;19997;-34
2022/11/27 07:26:22;;;;;;;120.88;44.47;;;;;;;;;;6185878;23;19997;-33
2022/11/27 07:28:48;;;;;;;112.68;42.95;;;;;;;;;;6185588;23;20001;-32
2022/11/27 07:31:17;;;;;;;105.95;38.15;;;;;;;;;;6159204;23;20004;-33
2022/11/27 07:33:43;;;;;;;89.32;37.30;;;;;;;;;;6185591;23;19989;-33
2022/11/27 07:36:15;;;;;;;113.53;39.88;;;;;;;;;;6159561;23;20030;-33
2022/11/27 07:38:41;;;;;;;100.70;38.42;;;;;;;;;;6185742;23;20008;-34
2022/11/27 07:41:07;;;;;;;139.07;45.00;;;;;;;;;;6185614;23;19997;-33
2022/11/27 07:43:33;;;;;;;109.97;39.53;;;;;;;;;;6185432;23;19997;-33
2022/11/27 07:45:58;;;;;;;108.85;38.28;;;;;;;;;;6185617;23;19997;-34
2022/11/27 07:48:23;;;;;;;112.93;38.95;;;;;;;;;;6185385;23;20024;-33
2022/11/27 07:50:49;;;;;;;104.53;40.05;;;;;;;;;;6158879;23;20417;-33
2022/11/27 07:53:14;;;;;;;108.35;37.53;;;;;;;;;;6158947;23;19997;-34
2022/11/27 07:55:40;;;;;;;94.35;37.55;;;;;;;;;;6185277;23;20076;-33
2022/11/27 07:58:06;;;;;;;105.80;39.00;;;;;;;;;;6185614;23;20004;-33
2022/11/27 08:00:31;;;;;;;100.82;38.60;;;;;;;;;;6185229;23;20306;-33
2022/11/27 08:02:57;;;;;;;110.20;38.85;;;;;;;;;;6185365;23;19996;-34
2022/11/27 08:05:24;;;;;;;126.80;41.33;;;;;;;;;;6184982;23;20024;-34
2022/11/27 08:07:49;;;;;;;101.32;38.88;;;;;;;;;;6185258;23;20028;-34
2022/11/27 08:10:14;;;;;;;124.72;40.17;;;;;;;;;;6185330;23;20001;-33
2022/11/27 08:12:39;;;;;;;112.97;37.20;;;;;;;;;;6159026;23;20089;-34
2022/11/27 08:15:05;;;;;;;119.93;39.90;;;;;;;;;;6185452;23;20009;-34
2022/11/27 08:17:30;;;;;;;124.22;41.13;;;;;;;;;;6184965;23;20365;-34
2022/11/27 08:19:55;;;;;;;123.50;39.22;;;;;;;;;;6185176;23;20085;-33
2022/11/27 08:22:21;;;;;;;129.13;39.13;;;;;;;;;;6185474;23;20041;-33
2022/11/27 08:24:47;;;;;;;131.38;41.92;;;;;;;;;;6185175;23;20001;-34
2022/11/27 08:27:12;;;;;;;119.38;40.92;;;;;;;;;;6185168;23;19997;-33
2022/11/27 08:29:37;;;;;;;153.45;47.72;;;;;;;;;;6185156;23;20008;-33
2022/11/27 08:32:03;;;;;;;118.13;42.05;;;;;;;;;;6184861;23;20008;-33
2022/11/27 08:34:28;;;;;;;120.10;38.10;;;;;;;;;;6185353;23;20040;-34
2022/11/27 08:36:53;;;;;;;134.95;45.28;;;;;;;;;;6184848;23;20076;-34
2022/11/27 08:39:19;;;;;;;142.63;45.00;;;;;;;;;;6185127;23;20039;-33
2022/11/27 08:41:44;;;;;;;125.13;39.30;;;;;;;;;;6185131;23;19997;-33
2022/11/27 08:44:09;;;;;;;104.20;36.17;;;;;;;;;;6185498;23;20043;-33
2022/11/27 08:46:35;;;;;;;102.72;37.60;;;;;;;;;;6185157;23;19994;-34
2022/11/27 08:49:00;;;;;;;98.13;36.08;;;;;;;;;;6185098;23;20425;-34
2022/11/27 08:51:26;;;;;;;114.43;36.63;;;;;;;;;;6185005;23;19997;-34
2022/11/27 08:53:51;;;;;;;102.53;35.28;;;;;;;;;;6185110;23;20369;-34
2022/11/27 08:56:21;;;;;;;107.15;36.80;;;;;;;;;;6158732;23;20307;-33
2022/11/27 08:58:46;;;;;;;93.32;34.33;;;;;;;;;;6158872;23;19997;-34
2022/11/27 09:01:17;;;;;;;100.75;35.90;;;;;;;;;;6158471;23;20001;-34
2022/11/27 09:03:42;;;;;;;108.13;36.45;;;;;;;;;;6184734;23;20318;-33
2022/11/27 09:06:11;;;;;;;90.68;33.85;;;;;;;;;;6184836;23;19993;-33
2022/11/27 09:08:37;;;;;;;113.18;39.08;;;;;;;;;;6184819;23;20325;-33
2022/11/27 09:11:03;;;;;;;113.40;39.53;;;;;;;;;;6158741;23;20020;-33
2022/11/27 09:13:29;;;;;;;116.25;39.30;;;;;;;;;;6158723;23;20414;-33
2022/11/27 09:15:55;;;;;;;99.07;38.63;;;;;;;;;;6184836;23;20421;-34
2022/11/27 09:18:20;;;;;;;102.38;36.53;;;;;;;;;;6186194;23;20024;-33
2022/11/27 09:20:53;;;;;;;99.38;35.92;;;;;;;;;;6160365;23;20001;-33
2022/11/27 09:23:18;;;;;;;90.82;33.88;;;;;;;;;;6160569;23;20005;-32
2022/11/27 09:25:43;;;;;;;102.65;36.22;;;;;;;;;;6187032;23;20413;-32
2022/11/27 09:28:08;;;;;;;99.05;36.47;;;;;;;;;;6186643;23;20306;-34
2022/11/27 09:30:34;;;;;;;92.65;34.65;;;;;;;;;;6160592;23;20004;-32
2022/11/27 09:33:00;;;;;;;97.10;35.05;;;;;;;;;;6186920;23;20005;-34
2022/11/27 09:35:26;;;;;;;93.53;33.67;;;;;;;;;;6187056;23;19993;-34
2022/11/27 09:37:51;;;;;;;93.07;34.03;;;;;;;;;;6160394;23;20004;-33
2022/11/27 09:40:16;;;;;;;90.30;34.47;;;;;;;;;;6186883;23;19998;-34
2022/11/27 09:43:08;;;;;;;95.57;34.55;;;;;;;;;;6186658;23;20004;-34
2022/11/27 09:45:35;;;;;;;97.15;34.40;;;;;;;;;;6160288;23;19993;-33
2022/11/27 09:48:04;;;;;;;87.55;33.20;;;;;;;;;;6186321;23;20298;-33
2022/11/27 09:50:31;;;;;;;99.93;34.75;;;;;;;;;;6186670;23;20037;-34
2022/11/27 09:53:15;;;;;;;89.80;35.05;;;;;;;;;;6186293;23;20297;-32
2022/11/27 09:55:42;;;;;;;96.93;36.60;;;;;;;;;;6186557;23;19997;-32
2022/11/27 09:58:11;;;;;;;93.40;36.05;;;;;;;;;;6186591;23;20301;-32
2022/11/27 10:00:36;;;;;;;103.67;34.00;;;;;;;;;;6186278;23;20322;-32
2022/11/27 10:03:01;;;;;;;92.43;35.47;;;;;;;;;;6186468;23;20082;-32
2022/11/27 10:05:49;;;;;;;90.97;35.13;;;;;;;;;;6186888;23;20429;-32
2022/11/27 10:08:17;;;;;;;102.55;35.90;;;;;;;;;;6185698;23;20012;-32
2022/11/27 10:10:50;;;;;;;90.40;35.40;;;;;;;;;;6185430;23;20024;-32
2022/11/27 10:13:24;;;;;;;94.55;32.92;;;;;;;;;;6186508;23;20425;-32
2022/11/27 10:15:55;;;;;;;100.63;34.40;;;;;;;;;;6186444;23;20001;-32
2022/11/27 10:18:20;;;;;;;96.38;36.13;;;;;;;;;;6186241;23;20013;-32
2022/11/27 10:20:52;;;;;;;90.60;35.30;;;;;;;;;;6186267;23;20003;-32
2022/11/27 10:23:23;;;;;;;89.80;32.92;;;;;;;;;;6186190;23;20270;-33
2022/11/27 10:25:51;;;;;;;100.15;38.47;;;;;;;;;;6186422;23;20394;-32
2022/11/27 10:28:22;;;;;;;96.03;36.95;;;;;;;;;;6185904;23;20012;-33
2022/11/27 10:31:07;;;;;;;97.43;35.35;;;;;;;;;;6186353;23;20084;-33
2022/11/27 10:33:56;;;;;;;91.63;34.55;;;;;;;;;;6159036;23;20318;-32
2022/11/27 10:36:41;;;;;;;90.90;34.90;;;;;;;;;;6170277;23;20080;-33
2022/11/27 10:39:12;;;;;;;92.60;36.95;;;;;;;;;;6184661;23;20001;-34
2022/11/27 10:42:07;;;;;;;91.03;35.17;;;;;;;;;;6186056;23;20425;-33
2022/11/27 10:44:37;;;;;;;110.95;41.63;;;;;;;;;;6160786;23;20409;-33
2022/11/27 10:47:04;;;;;;;110.55;39.65;;;;;;;;;;6186153;23;19997;-33
2022/11/27 10:49:30;;;;;;;101.13;39.33;;;;;;;;;;6186181;23;20016;-33
2022/11/27 10:51:55;;;;;;;112.05;42.85;;;;;;;;;;6159679;23;20080;-34
2022/11/27 10:54:33;;;;;;;105.18;39.85;;;;;;;;;;6185964;23;20063;-32
2022/11/27 10:57:10;;;;;;;101.22;41.03;;;;;;;;;;6186083;23;20052;-33
2022/11/27 10:59:38;;;;;;;89.13;35.65;;;;;;;;;;6159211;23;20028;-33
2022/11/27 11:02:06;;;;;;;99.32;35.35;;;;;;;;;;6185794;23;20028;-34
2022/11/27 11:04:31;;;;;;;90.90;36.05;;;;;;;;;;6159557;23;19997;-33
2022/11/27 11:06:57;;;;;;;87.57;35.22;;;;;;;;;;6159605;23;20020;-32
2022/11/27 11:09:30;;;;;;;90.32;35.78;;;;;;;;;;6159554;23;20013;-33
2022/11/27 11:12:15;;;;;;;83.40;32.72;;;;;;;;;;6159066;23;20009;-34
2022/11/27 11:14:48;;;;;;;83.22;32.33;;;;;;;;;;6185595;23;19997;-33
2022/11/27 11:17:16;;;;;;;85.05;33.75;;;;;;;;;;6185576;23;20072;-33
2022/11/27 11:19:42;;;;;;;75.82;30.88;;;;;;;;;;6159193;23;20548;-34
2022/11/27 11:22:15;;;;;;;84.25;33.08;;;;;;;;;;6185908;23;19997;-32
2022/11/27 11:24:44;;;;;;;71.82;29.63;;;;;;;;;;6159403;23;20020;-33
2022/11/27 11:27:15;;;;;;;78.88;31.15;;;;;;;;;;6185460;23;20001;-34
2022/11/27 11:29:50;;;;;;;74.70;29.90;;;;;;;;;;6185720;23;20009;-34
2022/11/27 11:32:18;;;;;;;68.03;28.48;;;;;;;;;;6159330;23;20404;-33
2022/11/27 11:34:51;;;;;;;77.22;30.23;;;;;;;;;;6185889;23;20036;-33
2022/11/27 11:37:21;;;;;;;68.07;28.50;;;;;;;;;;6159244;23;20003;-33
2022/11/27 11:39:52;;;;;;;75.20;30.60;;;;;;;;;;6184835;23;20004;-33
2022/11/27 11:42:19;;;;;;;74.05;29.73;;;;;;;;;;6185549;23;19993;-33
2022/11/27 11:44:49;;;;;;;82.13;31.63;;;;;;;;;;6185636;23;19989;-34
2022/11/27 11:47:16;;;;;;;79.43;29.50;;;;;;;;;;6185783;23;20432;-33
2022/11/27 11:49:42;;;;;;;82.57;32.20;;;;;;;;;;6185601;23;20016;-33
2022/11/27 11:52:22;;;;;;;73.78;29.45;;;;;;;;;;6159235;23;20001;-33
2022/11/27 11:55:20;;;;;;;73.68;29.85;;;;;;;;;;6185424;23;20001;-33
2022/11/27 11:57:45;;;;;;;86.22;32.17;;;;;;;;;;6119153;23;19997;-33
2022/11/27 12:00:13;;;;;;;77.33;30.70;;;;;;;;;;6158780;23;20055;-34
2022/11/27 12:02:47;;;;;;;73.38;30.70;;;;;;;;;;6158753;23;20210;-34
2022/11/27 12:05:31;;;;;;;79.95;31.85;;;;;;;;;;6159011;23;20353;-33
2022/11/27 12:08:15;;;;;;;77.90;30.90;;;;;;;;;;6185432;23;20024;-34
2022/11/27 12:10:52;;;;;;;84.25;31.60;;;;;;;;;;6185051;23;20005;-34
2022/11/27 12:13:25;;;;;;;90.60;33.55;;;;;;;;;;6185065;23;20001;-32
2022/11/27 12:15:56;;;;;;;88.07;33.25;;;;;;;;;;6185395;23;20394;-34
2022/11/27 12:18:40;;;;;;;92.75;33.58;;;;;;;;;;6184583;23;20017;-33
2022/11/27 12:21:16;;;;;;;85.45;33.25;;;;;;;;;;6185203;23;20001;-33
2022/11/27 12:23:48;;;;;;;88.68;33.08;;;;;;;;;;6185181;23;19997;-33
2022/11/27 12:26:31;;;;;;;90.90;31.50;;;;;;;;;;6185355;23;19989;-33
2022/11/27 12:28:56;;;;;;;89.20;31.60;;;;;;;;;;6158657;23;20040;-33
2022/11/27 12:31:27;;;;;;;91.50;31.43;;;;;;;;;;6185125;23;20001;-33
2022/11/27 12:34:07;;;;;;;90.45;32.53;;;;;;;;;;6184910;23;20225;-33
2022/11/27 12:36:41;;;;;;;88.05;28.55;;;;;;;;;;6185298;23;20020;-33
2022/11/27 12:39:21;;;;;;;80.07;27.20;;;;;;;;;;6184989;23;19993;-33
2022/11/27 12:41:49;;;;;;;78.18;27.33;;;;;;;;;;6185131;23;20460;-33
2022/11/27 12:44:22;;;;;;;77.40;27.40;;;;;;;;;;6185034;23;20499;-33
2022/11/27 12:46:57;;;;;;;80.60;26.42;;;;;;;;;;6158869;23;20422;-33
2022/11/27 12:49:31;;;;;;;75.97;27.52;;;;;;;;;;6184900;23;20349;-33
2022/11/27 12:51:59;;;;;;;73.35;25.55;;;;;;;;;;6187326;23;20031;-33
2022/11/27 12:54:44;;;;;;;79.60;26.50;;;;;;;;;;6188367;23;20001;-33
2022/11/27 12:57:12;;;;;;;76.35;25.17;;;;;;;;;;6186910;23;20044;-33
2022/11/27 12:59:42;;;;;;;87.40;28.15;;;;;;;;;;6188512;23;19993;-33
2022/11/27 13:02:26;;;;;;;72.82;25.75;;;;;;;;;;6188362;23;20059;-33
2022/11/27 13:05:10;;;;;;;75.32;25.67;;;;;;;;;;6187963;23;19997;-33
2022/11/27 13:07:49;;;;;;;74.40;24.77;;;;;;;;;;6188466;23;20001;-33
2022/11/27 13:10:33;;;;;;;80.53;27.15;;;;;;;;;;6187932;23;20009;-33
2022/11/27 13:13:03;;;;;;;84.13;28.27;;;;;;;;;;6188396;23;20304;-33
2022/11/27 13:15:34;;;;;;;75.60;28.73;;;;;;;;;;6188311;23;19993;-33
2022/11/27 13:18:03;;;;;;;80.82;28.60;;;;;;;;;;6188242;23;20094;-32
2022/11/27 13:20:34;;;;;;;71.82;26.50;;;;;;;;;;6188262;23;20076;-32
2022/11/27 13:22:59;;;;;;;77.50;27.70;;;;;;;;;;6188353;23;20409;-33
2022/11/27 13:25:25;;;;;;;77.78;28.45;;;;;;;;;;6188247;23;20060;-33
2022/11/27 13:27:51;;;;;;;77.72;27.75;;;;;;;;;;6188260;23;20407;-33
2022/11/27 13:30:28;;;;;;;81.75;28.67;;;;;;;;;;6188141;23;20005;-33
2022/11/27 13:32:55;;;;;;;76.60;28.75;;;;;;;;;;6188125;23;20413;-34
2022/11/27 13:35:24;;;;;;;82.93;28.58;;;;;;;;;;6188763;23;20047;-32
2022/11/27 13:37:54;;;;;;;84.35;28.15;;;;;;;;;;6188149;23;20000;-33
2022/11/27 13:40:20;;;;;;;86.82;29.10;;;;;;;;;;6188283;23;20072;-33
2022/11/27 13:42:48;;;;;;;79.93;28.93;;;;;;;;;;6188216;23;20017;-34
2022/11/27 13:45:19;;;;;;;79.60;27.50;;;;;;;;;;6187780;23;20314;-34
2022/11/27 13:47:44;;;;;;;81.30;30.50;;;;;;;;;;6187752;23;20371;-33
2022/11/27 13:50:14;;;;;;;86.68;27.85;;;;;;;;;;6188200;23;20080;-33
2022/11/27 13:52:50;;;;;;;77.90;28.10;;;;;;;;;;6188168;23;19993;-34
2022/11/27 13:55:21;;;;;;;80.32;29.30;;;;;;;;;;6188075;23;20084;-33
2022/11/27 13:57:51;;;;;;;85.53;29.85;;;;;;;;;;6188036;23;19997;-34
2022/11/27 14:00:16;;;;;;;;;;;;;;;;;;6188675;23;20003;-34
2022/11/27 14:02:42;;;;;;;77.50;27.33;;;;;;;;;;6187261;23;19931;-33
2022/11/27 14:05:09;;;;;;;76.88;27.85;;;;;;;;;;6160117;23;20444;-34
2022/11/27 14:07:36;;;;;;;85.80;29.92;;;;;;;;;;6186301;23;20054;-33
2022/11/27 14:10:07;;;;;;;83.93;26.85;;;;;;;;;;6186486;23;20009;-34
2022/11/27 14:12:32;;;;;;;76.63;28.23;;;;;;;;;;6186229;23;19996;-33
2022/11/27 14:15:03;;;;;;;71.65;26.67;;;;;;;;;;6186352;23;19997;-34
2022/11/27 14:17:33;;;;;;;81.65;27.60;;;;;;;;;;6186148;23;20023;-33